sensor_id;sensor_type;location;lat;lon;timestamp;pressure;altitude;pressure_sealevel;temperature;humidity
60920;BME280;59039;52.108;19.942;2024-01-07T00:00:24;100757.73;;;-4.08;74.80
60920;BME280;59039;52.108;19.942;2024-01-07T00:02:49;100762.02;;;-4.09;74.88
60920;BME280;59039;52.108;19.942;2024-01-07T00:05:14;100763.05;;;-4.08;74.78
60920;BME280;59039;52.108;19.942;2024-01-07T00:07:39;100763.94;;;-4.13;74.52
60920;BME280;59039;52.108;19.942;2024-01-07T00:10:05;100766.17;;;-4.16;74.41
60920;BME280;59039;52.108;19.942;2024-01-07T00:12:31;100773.41;;;-4.21;74.44
60920;BME280;59039;52.108;19.942;2024-01-07T00:14:56;100767.84;;;-4.24;74.67
60920;BME280;59039;52.108;19.942;2024-01-07T00:17:21;100768.58;;;-4.25;74.85
60920;BME280;59039;52.108;19.942;2024-01-07T00:19:46;100769.98;;;-4.24;75.32
60920;BME280;59039;52.108;19.942;2024-01-07T00:22:11;100773.14;;;-4.24;75.24
60920;BME280;59039;52.108;19.942;2024-01-07T00:24:37;100770.86;;;-4.25;74.89
60920;BME280;59039;52.108;19.942;2024-01-07T00:27:02;100783.35;;;-4.28;74.80
60920;BME280;59039;52.108;19.942;2024-01-07T00:29:28;100785.80;;;-4.32;74.75
60920;BME280;59039;52.108;19.942;2024-01-07T00:31:53;100784.51;;;-4.35;74.75
60920;BME280;59039;52.108;19.942;2024-01-07T00:34:18;100781.44;;;-4.39;75.15
60920;BME280;59039;52.108;19.942;2024-01-07T00:36:43;100791.34;;;-4.39;75.09
60920;BME280;59039;52.108;19.942;2024-01-07T00:39:08;100788.27;;;-4.42;75.15
60920;BME280;59039;52.108;19.942;2024-01-07T00:41:34;100793.27;;;-4.44;75.21
60920;BME280;59039;52.108;19.942;2024-01-07T00:43:59;100792.48;;;-4.47;75.25
60920;BME280;59039;52.108;19.942;2024-01-07T00:46:24;100797.88;;;-4.49;75.38
60920;BME280;59039;52.108;19.942;2024-01-07T00:48:49;100794.23;;;-4.51;75.44
60920;BME280;59039;52.108;19.942;2024-01-07T00:51:14;100797.05;;;-4.51;75.53
60920;BME280;59039;52.108;19.942;2024-01-07T00:53:40;100801.55;;;-4.53;75.76
60920;BME280;59039;52.108;19.942;2024-01-07T00:56:06;100805.26;;;-4.53;75.56
60920;BME280;59039;52.108;19.942;2024-01-07T00:58:31;100807.98;;;-4.55;75.58
60920;BME280;59039;52.108;19.942;2024-01-07T01:00:56;100810.68;;;-4.57;75.69
60920;BME280;59039;52.108;19.942;2024-01-07T01:03:21;100808.05;;;-4.57;75.91
60920;BME280;59039;52.108;19.942;2024-01-07T01:05:47;100811.92;;;-4.57;76.26
60920;BME280;59039;52.108;19.942;2024-01-07T01:08:12;100809.37;;;-4.54;76.22
60920;BME280;59039;52.108;19.942;2024-01-07T01:10:37;100812.31;;;-4.53;75.89
60920;BME280;59039;52.108;19.942;2024-01-07T01:13:03;100806.59;;;-4.56;75.80
60920;BME280;59039;52.108;19.942;2024-01-07T01:15:28;100804.77;;;-4.60;75.75
60920;BME280;59039;52.108;19.942;2024-01-07T01:17:53;100806.84;;;-4.64;75.84
60920;BME280;59039;52.108;19.942;2024-01-07T01:20:18;100804.98;;;-4.67;75.81
60920;BME280;59039;52.108;19.942;2024-01-07T01:22:44;100803.85;;;-4.70;75.82
60920;BME280;59039;52.108;19.942;2024-01-07T01:25:09;100799.92;;;-4.75;75.88
60920;BME280;59039;52.108;19.942;2024-01-07T01:27:34;100801.96;;;-4.77;76.00
60920;BME280;59039;52.108;19.942;2024-01-07T01:29:59;100802.41;;;-4.80;75.79
60920;BME280;59039;52.108;19.942;2024-01-07T01:32:24;100799.40;;;-4.86;76.10
60920;BME280;59039;52.108;19.942;2024-01-07T01:34:50;100806.70;;;-4.88;76.00
60920;BME280;59039;52.108;19.942;2024-01-07T01:37:15;100805.41;;;-4.92;76.05
60920;BME280;59039;52.108;19.942;2024-01-07T01:39:41;100806.79;;;-4.96;76.07
60920;BME280;59039;52.108;19.942;2024-01-07T01:42:06;100807.78;;;-5.00;76.11
60920;BME280;59039;52.108;19.942;2024-01-07T01:44:31;100807.37;;;-5.04;76.27
60920;BME280;59039;52.108;19.942;2024-01-07T01:46:56;100804.64;;;-5.07;76.21
60920;BME280;59039;52.108;19.942;2024-01-07T01:49:22;100807.38;;;-5.11;76.25
60920;BME280;59039;52.108;19.942;2024-01-07T01:51:47;100806.23;;;-5.13;76.38
60920;BME280;59039;52.108;19.942;2024-01-07T01:54:13;100805.02;;;-5.14;76.34
60920;BME280;59039;52.108;19.942;2024-01-07T01:56:38;100796.48;;;-5.18;76.70
60920;BME280;59039;52.108;19.942;2024-01-07T01:59:04;100795.75;;;-5.17;76.90
60920;BME280;59039;52.108;19.942;2024-01-07T02:01:30;100801.36;;;-5.16;76.83
60920;BME280;59039;52.108;19.942;2024-01-07T02:03:55;100803.66;;;-5.15;76.69
60920;BME280;59039;52.108;19.942;2024-01-07T02:06:21;100808.63;;;-5.16;76.74
60920;BME280;59039;52.108;19.942;2024-01-07T02:08:46;100806.11;;;-5.15;76.77
60920;BME280;59039;52.108;19.942;2024-01-07T02:11:16;100808.92;;;-5.15;76.78
60920;BME280;59039;52.108;19.942;2024-01-07T02:13:41;100813.05;;;-5.17;76.59
60920;BME280;59039;52.108;19.942;2024-01-07T02:16:07;100814.88;;;-5.18;76.76
60920;BME280;59039;52.108;19.942;2024-01-07T02:18:32;100815.73;;;-5.18;76.72
60920;BME280;59039;52.108;19.942;2024-01-07T02:20:57;100815.45;;;-5.20;76.72
60920;BME280;59039;52.108;19.942;2024-01-07T02:23:22;100812.40;;;-5.25;76.38
60920;BME280;59039;52.108;19.942;2024-01-07T02:25:47;100815.59;;;-5.31;76.44
60920;BME280;59039;52.108;19.942;2024-01-07T02:28:13;100810.14;;;-5.38;76.37
60920;BME280;59039;52.108;19.942;2024-01-07T02:30:38;100809.27;;;-5.44;76.48
60920;BME280;59039;52.108;19.942;2024-01-07T02:33:03;100810.96;;;-5.48;76.85
60920;BME280;59039;52.108;19.942;2024-01-07T02:35:29;100808.19;;;-5.50;76.62
60920;BME280;59039;52.108;19.942;2024-01-07T02:37:54;100809.16;;;-5.53;76.62
60920;BME280;59039;52.108;19.942;2024-01-07T02:40:19;100805.45;;;-5.60;77.28
60920;BME280;59039;52.108;19.942;2024-01-07T02:42:44;100806.67;;;-5.59;77.39
60920;BME280;59039;52.108;19.942;2024-01-07T02:45:10;100805.96;;;-5.59;77.25
60920;BME280;59039;52.108;19.942;2024-01-07T02:47:35;100811.80;;;-5.59;77.22
60920;BME280;59039;52.108;19.942;2024-01-07T02:50:00;100813.12;;;-5.62;77.05
60920;BME280;59039;52.108;19.942;2024-01-07T02:52:25;100813.62;;;-5.68;77.21
60920;BME280;59039;52.108;19.942;2024-01-07T02:54:50;100811.75;;;-5.70;77.29
60920;BME280;59039;52.108;19.942;2024-01-07T02:57:16;100806.93;;;-5.75;77.54
60920;BME280;59039;52.108;19.942;2024-01-07T02:59:41;100806.55;;;-5.74;78.06
60920;BME280;59039;52.108;19.942;2024-01-07T03:02:06;100806.34;;;-5.72;77.50
60920;BME280;59039;52.108;19.942;2024-01-07T03:04:31;100805.79;;;-5.78;77.63
60920;BME280;59039;52.108;19.942;2024-01-07T03:06:56;100804.44;;;-5.80;77.71
60920;BME280;59039;52.108;19.942;2024-01-07T03:09:22;100804.75;;;-5.79;77.86
60920;BME280;59039;52.108;19.942;2024-01-07T03:11:47;100809.81;;;-5.77;78.05
60920;BME280;59039;52.108;19.942;2024-01-07T03:14:12;100815.98;;;-5.77;77.68
60920;BME280;59039;52.108;19.942;2024-01-07T03:16:37;100815.86;;;-5.78;77.92
60920;BME280;59039;52.108;19.942;2024-01-07T03:19:02;100816.02;;;-5.78;78.12
60920;BME280;59039;52.108;19.942;2024-01-07T03:21:28;100816.34;;;-5.76;78.19
60920;BME280;59039;52.108;19.942;2024-01-07T03:23:53;100817.16;;;-5.75;78.05
60920;BME280;59039;52.108;19.942;2024-01-07T03:26:20;100815.96;;;-5.76;78.09
60920;BME280;59039;52.108;19.942;2024-01-07T03:28:45;100816.01;;;-5.77;77.73
60920;BME280;59039;52.108;19.942;2024-01-07T03:31:18;100817.54;;;-5.81;77.86
60920;BME280;59039;52.108;19.942;2024-01-07T03:33:44;100815.27;;;-5.83;77.77
60920;BME280;59039;52.108;19.942;2024-01-07T03:36:13;100816.95;;;-5.86;77.96
60920;BME280;59039;52.108;19.942;2024-01-07T03:38:39;100813.61;;;-5.86;77.93
60920;BME280;59039;52.108;19.942;2024-01-07T03:41:05;100813.30;;;-5.88;77.89
60920;BME280;59039;52.108;19.942;2024-01-07T03:43:31;100812.96;;;-5.89;77.65
60920;BME280;59039;52.108;19.942;2024-01-07T03:45:56;100816.98;;;-5.93;77.51
60920;BME280;59039;52.108;19.942;2024-01-07T03:48:21;100820.57;;;-6.02;77.59
60920;BME280;59039;52.108;19.942;2024-01-07T03:50:47;100821.23;;;-6.06;77.85
60920;BME280;59039;52.108;19.942;2024-01-07T03:53:12;100819.84;;;-6.07;77.92
60920;BME280;59039;52.108;19.942;2024-01-07T03:55:38;100822.88;;;-6.09;77.78
60920;BME280;59039;52.108;19.942;2024-01-07T03:58:05;100826.67;;;-6.13;78.12
60920;BME280;59039;52.108;19.942;2024-01-07T04:00:30;100826.68;;;-6.13;77.89
60920;BME280;59039;52.108;19.942;2024-01-07T04:02:55;100830.98;;;-6.16;77.72
60920;BME280;59039;52.108;19.942;2024-01-07T04:05:20;100830.20;;;-6.19;77.79
60920;BME280;59039;52.108;19.942;2024-01-07T04:07:46;100831.10;;;-6.20;77.96
60920;BME280;59039;52.108;19.942;2024-01-07T04:10:11;100830.54;;;-6.19;78.13
60920;BME280;59039;52.108;19.942;2024-01-07T04:12:36;100829.10;;;-6.18;77.96
60920;BME280;59039;52.108;19.942;2024-01-07T04:15:02;100829.02;;;-6.22;77.87
60920;BME280;59039;52.108;19.942;2024-01-07T04:17:28;100826.96;;;-6.24;78.07
60920;BME280;59039;52.108;19.942;2024-01-07T04:19:53;100835.94;;;-6.23;78.03
60920;BME280;59039;52.108;19.942;2024-01-07T04:22:18;100842.66;;;-6.24;77.81
60920;BME280;59039;52.108;19.942;2024-01-07T04:24:43;100843.80;;;-6.27;77.83
60920;BME280;59039;52.108;19.942;2024-01-07T04:27:09;100848.24;;;-6.29;77.56
60920;BME280;59039;52.108;19.942;2024-01-07T04:29:34;100850.08;;;-6.39;77.28
60920;BME280;59039;52.108;19.942;2024-01-07T04:32:00;100853.23;;;-6.46;77.68
60920;BME280;59039;52.108;19.942;2024-01-07T04:34:25;100847.85;;;-6.49;77.70
60920;BME280;59039;52.108;19.942;2024-01-07T04:36:51;100851.20;;;-6.50;78.00
60920;BME280;59039;52.108;19.942;2024-01-07T04:39:16;100855.93;;;-6.48;78.04
60920;BME280;59039;52.108;19.942;2024-01-07T04:41:41;100852.20;;;-6.47;77.93
60920;BME280;59039;52.108;19.942;2024-01-07T04:44:06;100857.73;;;-6.49;77.93
60920;BME280;59039;52.108;19.942;2024-01-07T04:46:37;100852.98;;;-6.50;77.91
60920;BME280;59039;52.108;19.942;2024-01-07T04:49:02;100856.92;;;-6.53;77.86
60920;BME280;59039;52.108;19.942;2024-01-07T04:51:28;100856.59;;;-6.53;78.08
60920;BME280;59039;52.108;19.942;2024-01-07T04:53:53;100865.43;;;-6.55;77.76
60920;BME280;59039;52.108;19.942;2024-01-07T04:56:18;100863.61;;;-6.60;77.25
60920;BME280;59039;52.108;19.942;2024-01-07T04:58:43;100864.48;;;-6.74;76.85
60920;BME280;59039;52.108;19.942;2024-01-07T05:01:09;100865.98;;;-6.86;77.23
60920;BME280;59039;52.108;19.942;2024-01-07T05:03:34;100867.20;;;-6.94;77.06
60920;BME280;59039;52.108;19.942;2024-01-07T05:05:59;100865.26;;;-7.02;77.62
60920;BME280;59039;52.108;19.942;2024-01-07T05:08:24;100874.39;;;-7.01;77.94
60920;BME280;59039;52.108;19.942;2024-01-07T05:10:49;100869.42;;;-7.00;78.01
60920;BME280;59039;52.108;19.942;2024-01-07T05:13:15;100875.02;;;-6.97;78.18
60920;BME280;59039;52.108;19.942;2024-01-07T05:15:40;100876.02;;;-6.93;77.98
60920;BME280;59039;52.108;19.942;2024-01-07T05:18:07;100874.59;;;-6.93;77.94
60920;BME280;59039;52.108;19.942;2024-01-07T05:20:32;100875.28;;;-6.93;77.91
60920;BME280;59039;52.108;19.942;2024-01-07T05:22:58;100876.48;;;-6.91;78.48
60920;BME280;59039;52.108;19.942;2024-01-07T05:25:23;100876.76;;;-6.88;78.27
60920;BME280;59039;52.108;19.942;2024-01-07T05:27:48;100873.02;;;-6.86;77.87
60920;BME280;59039;52.108;19.942;2024-01-07T05:30:13;100875.23;;;-6.91;77.66
60920;BME280;59039;52.108;19.942;2024-01-07T05:32:38;100876.02;;;-6.95;77.51
60920;BME280;59039;52.108;19.942;2024-01-07T05:35:04;100874.53;;;-6.99;77.65
60920;BME280;59039;52.108;19.942;2024-01-07T05:37:29;100872.88;;;-7.04;77.61
60920;BME280;59039;52.108;19.942;2024-01-07T05:39:54;100872.21;;;-7.06;77.73
60920;BME280;59039;52.108;19.942;2024-01-07T05:42:20;100870.95;;;-7.05;78.17
60920;BME280;59039;52.108;19.942;2024-01-07T05:44:45;100869.68;;;-7.03;78.20
60920;BME280;59039;52.108;19.942;2024-01-07T05:47:10;100872.41;;;-6.99;78.54
60920;BME280;59039;52.108;19.942;2024-01-07T05:49:35;100871.96;;;-6.95;78.70
60920;BME280;59039;52.108;19.942;2024-01-07T05:52:00;100879.09;;;-6.90;78.50
60920;BME280;59039;52.108;19.942;2024-01-07T05:54:26;100874.31;;;-6.89;78.21
60920;BME280;59039;52.108;19.942;2024-01-07T05:56:51;100874.45;;;-6.87;78.48
60920;BME280;59039;52.108;19.942;2024-01-07T05:59:16;100874.39;;;-6.85;78.41
60920;BME280;59039;52.108;19.942;2024-01-07T06:01:41;100876.25;;;-6.81;78.65
60920;BME280;59039;52.108;19.942;2024-01-07T06:04:07;100877.04;;;-6.77;78.66
60920;BME280;59039;52.108;19.942;2024-01-07T06:06:32;100879.77;;;-6.73;78.32
60920;BME280;59039;52.108;19.942;2024-01-07T06:08:57;100882.55;;;-6.71;78.28
60920;BME280;59039;52.108;19.942;2024-01-07T06:11:22;100885.03;;;-6.72;78.31
60920;BME280;59039;52.108;19.942;2024-01-07T06:13:48;100886.25;;;-6.71;78.35
60920;BME280;59039;52.108;19.942;2024-01-07T06:16:13;100886.39;;;-6.69;78.06
60920;BME280;59039;52.108;19.942;2024-01-07T06:18:39;100890.14;;;-6.71;78.11
60920;BME280;59039;52.108;19.942;2024-01-07T06:21:05;100894.70;;;-6.70;78.23
60920;BME280;59039;52.108;19.942;2024-01-07T06:23:32;100891.30;;;-6.76;77.98
60920;BME280;59039;52.108;19.942;2024-01-07T06:25:57;100890.62;;;-6.77;78.31
60920;BME280;59039;52.108;19.942;2024-01-07T06:28:23;100896.20;;;-6.74;78.43
60920;BME280;59039;52.108;19.942;2024-01-07T06:30:48;100897.90;;;-6.72;78.26
60920;BME280;59039;52.108;19.942;2024-01-07T06:33:13;100898.73;;;-6.70;78.33
60920;BME280;59039;52.108;19.942;2024-01-07T06:35:38;100903.65;;;-6.69;78.27
60920;BME280;59039;52.108;19.942;2024-01-07T06:38:03;100901.84;;;-6.67;78.52
60920;BME280;59039;52.108;19.942;2024-01-07T06:40:29;100902.86;;;-6.65;78.39
60920;BME280;59039;52.108;19.942;2024-01-07T06:42:54;100907.23;;;-6.63;78.60
60920;BME280;59039;52.108;19.942;2024-01-07T06:45:19;100911.62;;;-6.62;78.55
60920;BME280;59039;52.108;19.942;2024-01-07T06:47:44;100916.70;;;-6.62;78.44
60920;BME280;59039;52.108;19.942;2024-01-07T06:50:10;100915.80;;;-6.60;78.45
60920;BME280;59039;52.108;19.942;2024-01-07T06:52:35;100916.48;;;-6.59;78.22
60920;BME280;59039;52.108;19.942;2024-01-07T06:55:00;100921.25;;;-6.60;78.20
60920;BME280;59039;52.108;19.942;2024-01-07T06:57:25;100923.91;;;-6.61;77.98
60920;BME280;59039;52.108;19.942;2024-01-07T06:59:51;100930.90;;;-6.65;77.82
60920;BME280;59039;52.108;19.942;2024-01-07T07:02:16;100927.61;;;-6.69;78.11
60920;BME280;59039;52.108;19.942;2024-01-07T07:04:41;100928.30;;;-6.68;78.44
60920;BME280;59039;52.108;19.942;2024-01-07T07:07:06;100926.69;;;-6.67;78.22
60920;BME280;59039;52.108;19.942;2024-01-07T07:09:32;100930.40;;;-6.67;78.18
60920;BME280;59039;52.108;19.942;2024-01-07T07:11:57;100937.14;;;-6.69;78.09
60920;BME280;59039;52.108;19.942;2024-01-07T07:14:22;100940.78;;;-6.75;78.09
60920;BME280;59039;52.108;19.942;2024-01-07T07:16:48;100941.90;;;-6.78;78.09
60920;BME280;59039;52.108;19.942;2024-01-07T07:19:13;100942.10;;;-6.79;78.46
60920;BME280;59039;52.108;19.942;2024-01-07T07:21:38;100943.29;;;-6.76;78.48
60920;BME280;59039;52.108;19.942;2024-01-07T07:24:03;100945.32;;;-6.73;78.33
60920;BME280;59039;52.108;19.942;2024-01-07T07:26:29;100944.82;;;-6.74;78.24
60920;BME280;59039;52.108;19.942;2024-01-07T07:28:54;100953.09;;;-6.73;78.22
60920;BME280;59039;52.108;19.942;2024-01-07T07:31:19;100954.30;;;-6.73;78.24
60920;BME280;59039;52.108;19.942;2024-01-07T07:33:44;100954.33;;;-6.74;78.41
60920;BME280;59039;52.108;19.942;2024-01-07T07:36:09;100951.64;;;-6.72;78.33
60920;BME280;59039;52.108;19.942;2024-01-07T07:38:35;100950.55;;;-6.69;78.67
60920;BME280;59039;52.108;19.942;2024-01-07T07:41:00;100951.34;;;-6.66;79.05
60920;BME280;59039;52.108;19.942;2024-01-07T07:43:25;100953.69;;;-6.61;78.85
60920;BME280;59039;52.108;19.942;2024-01-07T07:45:51;100952.39;;;-6.57;78.68
60920;BME280;59039;52.108;19.942;2024-01-07T07:48:17;100950.73;;;-6.54;78.32
60920;BME280;59039;52.108;19.942;2024-01-07T07:50:42;100952.90;;;-6.57;78.61
60920;BME280;59039;52.108;19.942;2024-01-07T07:53:08;100950.92;;;-6.55;78.81
60920;BME280;59039;52.108;19.942;2024-01-07T07:55:33;100956.30;;;-6.51;78.83
60920;BME280;59039;52.108;19.942;2024-01-07T07:57:58;100959.56;;;-6.46;78.84
60920;BME280;59039;52.108;19.942;2024-01-07T08:00:23;100961.42;;;-6.43;78.74
60920;BME280;59039;52.108;19.942;2024-01-07T08:02:49;100962.75;;;-6.40;78.50
60920;BME280;59039;52.108;19.942;2024-01-07T08:05:14;100964.66;;;-6.38;78.39
60920;BME280;59039;52.108;19.942;2024-01-07T08:07:39;100967.26;;;-6.36;78.59
60920;BME280;59039;52.108;19.942;2024-01-07T08:10:05;100968.25;;;-6.33;78.30
60920;BME280;59039;52.108;19.942;2024-01-07T08:12:30;100968.98;;;-6.34;78.06
60920;BME280;59039;52.108;19.942;2024-01-07T08:14:56;100970.79;;;-6.36;78.15
60920;BME280;59039;52.108;19.942;2024-01-07T08:17:21;100974.52;;;-6.37;78.09
60920;BME280;59039;52.108;19.942;2024-01-07T08:19:46;100978.54;;;-6.35;78.10
60920;BME280;59039;52.108;19.942;2024-01-07T08:22:11;100981.61;;;-6.39;77.80
60920;BME280;59039;52.108;19.942;2024-01-07T08:24:36;100983.98;;;-6.42;77.77
60920;BME280;59039;52.108;19.942;2024-01-07T08:27:02;100987.38;;;-6.45;78.03
60920;BME280;59039;52.108;19.942;2024-01-07T08:29:27;100992.13;;;-6.45;77.69
60920;BME280;59039;52.108;19.942;2024-01-07T08:31:52;100988.72;;;-6.50;77.69
60920;BME280;59039;52.108;19.942;2024-01-07T08:34:17;100987.91;;;-6.53;77.67
60920;BME280;59039;52.108;19.942;2024-01-07T08:36:43;100993.54;;;-6.53;77.77
60920;BME280;59039;52.108;19.942;2024-01-07T08:39:08;100992.50;;;-6.54;77.91
60920;BME280;59039;52.108;19.942;2024-01-07T08:41:33;100994.92;;;-6.51;78.30
60920;BME280;59039;52.108;19.942;2024-01-07T08:43:58;100991.64;;;-6.46;78.24
60920;BME280;59039;52.108;19.942;2024-01-07T08:46:24;100991.77;;;-6.45;78.08
60920;BME280;59039;52.108;19.942;2024-01-07T08:48:49;100991.92;;;-6.43;78.15
60920;BME280;59039;52.108;19.942;2024-01-07T08:51:14;100997.88;;;-6.41;77.94
60920;BME280;59039;52.108;19.942;2024-01-07T08:53:40;100998.20;;;-6.40;77.97
60920;BME280;59039;52.108;19.942;2024-01-07T08:56:05;100999.95;;;-6.39;78.04
60920;BME280;59039;52.108;19.942;2024-01-07T08:58:30;101003.10;;;-6.38;78.09
60920;BME280;59039;52.108;19.942;2024-01-07T09:00:55;101006.77;;;-6.37;77.78
60920;BME280;59039;52.108;19.942;2024-01-07T09:03:20;101006.55;;;-6.35;77.92
60920;BME280;59039;52.108;19.942;2024-01-07T09:05:46;101007.73;;;-6.31;77.79
60920;BME280;59039;52.108;19.942;2024-01-07T09:08:11;101005.07;;;-6.31;77.69
60920;BME280;59039;52.108;19.942;2024-01-07T09:10:36;101008.04;;;-6.30;78.01
60920;BME280;59039;52.108;19.942;2024-01-07T09:13:03;101004.45;;;-6.27;77.93
60920;BME280;59039;52.108;19.942;2024-01-07T09:15:28;101010.92;;;-6.25;77.48
60920;BME280;59039;52.108;19.942;2024-01-07T09:17:53;101004.46;;;-6.28;77.28
60920;BME280;59039;52.108;19.942;2024-01-07T09:20:18;101000.60;;;-6.28;77.64
60920;BME280;59039;52.108;19.942;2024-01-07T09:22:44;101000.38;;;-6.26;77.76
60920;BME280;59039;52.108;19.942;2024-01-07T09:25:09;101002.59;;;-6.23;77.52
60920;BME280;59039;52.108;19.942;2024-01-07T09:27:34;101004.27;;;-6.26;77.47
60920;BME280;59039;52.108;19.942;2024-01-07T09:30:00;101003.61;;;-6.28;77.50
60920;BME280;59039;52.108;19.942;2024-01-07T09:32:25;101004.64;;;-6.28;77.80
60920;BME280;59039;52.108;19.942;2024-01-07T09:34:50;101001.78;;;-6.26;77.81
60920;BME280;59039;52.108;19.942;2024-01-07T09:37:16;101003.81;;;-6.22;77.89
60920;BME280;59039;52.108;19.942;2024-01-07T09:39:42;101007.77;;;-6.18;78.02
60920;BME280;59039;52.108;19.942;2024-01-07T09:42:18;101006.61;;;-6.13;78.00
60920;BME280;59039;52.108;19.942;2024-01-07T09:44:44;101007.55;;;-6.15;77.13
60920;BME280;59039;52.108;19.942;2024-01-07T09:47:13;101004.27;;;-6.18;76.96
60920;BME280;59039;52.108;19.942;2024-01-07T09:49:40;101004.65;;;-6.20;77.39
60920;BME280;59039;52.108;19.942;2024-01-07T09:52:10;101004.77;;;-6.18;77.87
60920;BME280;59039;52.108;19.942;2024-01-07T09:54:36;101004.14;;;-6.13;78.13
60920;BME280;59039;52.108;19.942;2024-01-07T09:57:03;101002.13;;;-6.10;77.71
60920;BME280;59039;52.108;19.942;2024-01-07T09:59:29;101002.65;;;-6.09;77.54
60920;BME280;59039;52.108;19.942;2024-01-07T10:01:55;101005.27;;;-6.08;77.67
60920;BME280;59039;52.108;19.942;2024-01-07T10:04:20;101004.52;;;-6.07;77.33
60920;BME280;59039;52.108;19.942;2024-01-07T10:06:46;101004.73;;;-6.08;77.28
60920;BME280;59039;52.108;19.942;2024-01-07T10:09:13;101001.52;;;-6.07;77.40
60920;BME280;59039;52.108;19.942;2024-01-07T10:11:38;101000.98;;;-6.06;77.26
60920;BME280;59039;52.108;19.942;2024-01-07T10:14:04;101004.68;;;-6.05;77.26
60920;BME280;59039;52.108;19.942;2024-01-07T10:16:29;101003.75;;;-6.04;77.41
60920;BME280;59039;52.108;19.942;2024-01-07T10:18:54;101006.45;;;-5.99;77.42
60920;BME280;59039;52.108;19.942;2024-01-07T10:21:19;101004.58;;;-6.01;76.96
60920;BME280;59039;52.108;19.942;2024-01-07T10:23:45;101004.46;;;-6.04;77.34
60920;BME280;59039;52.108;19.942;2024-01-07T10:26:10;101003.14;;;-6.00;77.62
60920;BME280;59039;52.108;19.942;2024-01-07T10:28:36;100996.87;;;-5.96;77.49
60920;BME280;59039;52.108;19.942;2024-01-07T10:31:03;101000.80;;;-5.93;77.26
60920;BME280;59039;52.108;19.942;2024-01-07T10:33:31;101002.64;;;-5.95;76.76
60920;BME280;59039;52.108;19.942;2024-01-07T10:36:05;101005.61;;;-6.00;76.75
60920;BME280;59039;52.108;19.942;2024-01-07T10:38:31;101004.84;;;-6.05;76.66
60920;BME280;59039;52.108;19.942;2024-01-07T10:40:57;101008.27;;;-6.09;76.56
60920;BME280;59039;52.108;19.942;2024-01-07T10:43:26;101009.35;;;-6.09;76.99
60920;BME280;59039;52.108;19.942;2024-01-07T10:45:51;101015.23;;;-6.04;77.14
60920;BME280;59039;52.108;19.942;2024-01-07T10:48:17;101015.72;;;-6.03;77.11
60920;BME280;59039;52.108;19.942;2024-01-07T10:50:45;101015.69;;;-6.01;77.09
60920;BME280;59039;52.108;19.942;2024-01-07T10:53:13;101017.11;;;-6.01;76.72
60920;BME280;59039;52.108;19.942;2024-01-07T10:55:49;101012.64;;;-5.99;76.83
60920;BME280;59039;52.108;19.942;2024-01-07T10:58:19;101009.40;;;-5.97;76.92
60920;BME280;59039;52.108;19.942;2024-01-07T11:00:45;101009.71;;;-5.95;76.67
60920;BME280;59039;52.108;19.942;2024-01-07T11:03:17;101006.10;;;-5.99;76.46
60920;BME280;59039;52.108;19.942;2024-01-07T11:05:55;101004.27;;;-6.03;76.49
60920;BME280;59039;52.108;19.942;2024-01-07T11:08:57;101002.87;;;-6.03;76.48
60920;BME280;59039;52.108;19.942;2024-01-07T11:11:27;101000.93;;;-6.04;76.61
60920;BME280;59039;52.108;19.942;2024-01-07T11:16:59;101009.51;;;-6.01;76.73
60920;BME280;59039;52.108;19.942;2024-01-07T11:19:25;101006.48;;;-5.99;76.52
60920;BME280;59039;52.108;19.942;2024-01-07T11:21:51;101007.05;;;-6.02;76.30
60920;BME280;59039;52.108;19.942;2024-01-07T11:24:38;101006.06;;;-6.04;76.54
60920;BME280;59039;52.108;19.942;2024-01-07T11:27:03;101009.70;;;-6.02;76.64
60920;BME280;59039;52.108;19.942;2024-01-07T11:29:31;101005.09;;;-6.01;76.62
60920;BME280;59039;52.108;19.942;2024-01-07T11:31:56;101008.23;;;-5.99;76.54
60920;BME280;59039;52.108;19.942;2024-01-07T11:34:41;101004.32;;;-5.98;76.58
60920;BME280;59039;52.108;19.942;2024-01-07T11:37:10;101009.65;;;-6.00;76.34
60920;BME280;59039;52.108;19.942;2024-01-07T11:39:35;101005.98;;;-6.01;76.28
60920;BME280;59039;52.108;19.942;2024-01-07T11:42:03;101002.57;;;-6.06;76.41
60920;BME280;59039;52.108;19.942;2024-01-07T11:44:28;101003.80;;;-6.06;76.32
60920;BME280;59039;52.108;19.942;2024-01-07T11:46:54;101007.39;;;-6.08;76.33
60920;BME280;59039;52.108;19.942;2024-01-07T11:49:19;101003.72;;;-6.10;76.17
60920;BME280;59039;52.108;19.942;2024-01-07T11:51:44;101009.16;;;-6.09;76.28
60920;BME280;59039;52.108;19.942;2024-01-07T11:54:09;101007.02;;;-6.09;76.00
60920;BME280;59039;52.108;19.942;2024-01-07T11:56:35;101003.11;;;-6.07;76.37
60920;BME280;59039;52.108;19.942;2024-01-07T11:59:00;101011.24;;;-6.07;75.94
60920;BME280;59039;52.108;19.942;2024-01-07T12:01:25;101009.00;;;-6.17;75.34
60920;BME280;59039;52.108;19.942;2024-01-07T12:03:51;101013.19;;;-6.23;75.80
60920;BME280;59039;52.108;19.942;2024-01-07T12:06:16;101012.11;;;-6.30;75.62
60920;BME280;59039;52.108;19.942;2024-01-07T12:08:42;101011.00;;;-6.37;75.72
60920;BME280;59039;52.108;19.942;2024-01-07T12:11:08;101007.88;;;-6.39;75.82
60920;BME280;59039;52.108;19.942;2024-01-07T12:13:33;101010.27;;;-6.43;75.55
60920;BME280;59039;52.108;19.942;2024-01-07T12:15:59;101010.58;;;-6.49;75.36
60920;BME280;59039;52.108;19.942;2024-01-07T12:18:25;101012.79;;;-6.54;75.67
60920;BME280;59039;52.108;19.942;2024-01-07T12:20:57;101009.67;;;-6.57;76.12
60920;BME280;59039;52.108;19.942;2024-01-07T12:23:23;101010.69;;;-6.55;76.29
60920;BME280;59039;52.108;19.942;2024-01-07T12:25:48;101010.10;;;-6.53;76.46
60920;BME280;59039;52.108;19.942;2024-01-07T12:28:14;101008.96;;;-6.48;76.50
60920;BME280;59039;52.108;19.942;2024-01-07T12:30:39;101004.29;;;-6.44;76.50
60920;BME280;59039;52.108;19.942;2024-01-07T12:33:05;101006.14;;;-6.40;76.54
60920;BME280;59039;52.108;19.942;2024-01-07T12:35:30;101008.16;;;-6.36;76.46